createdAt,value
2023-08-05T00:01:46.104Z,19.50
2023-08-05T00:04:13.052Z,19.50
2023-08-05T00:06:39.964Z,19.50
2023-08-05T00:09:06.851Z,19.50
2023-08-05T00:11:35.096Z,19.50
2023-08-05T00:14:01.974Z,19.40
2023-08-05T00:16:28.918Z,19.40
2023-08-05T00:18:55.880Z,19.40
2023-08-05T00:21:22.893Z,19.40
2023-08-05T00:23:49.776Z,19.40
2023-08-05T00:26:16.674Z,19.40
2023-08-05T00:28:44.942Z,19.40
2023-08-05T00:31:11.850Z,19.40
2023-08-05T00:33:38.774Z,19.40
2023-08-05T00:36:05.871Z,19.30
2023-08-05T00:38:32.764Z,19.30
2023-08-05T00:40:59.681Z,19.30
2023-08-05T00:43:26.613Z,19.30
2023-08-05T00:45:55.181Z,19.30
2023-08-05T00:48:22.086Z,19.30
2023-08-05T00:50:48.966Z,19.30
2023-08-05T00:53:15.872Z,19.30
2023-08-05T00:55:42.794Z,19.30
2023-08-05T00:58:09.728Z,19.30
2023-08-05T01:00:36.628Z,19.30
2023-08-05T01:03:04.926Z,19.30
2023-08-05T01:05:31.968Z,19.30
2023-08-05T01:07:58.906Z,19.20
2023-08-05T01:10:25.885Z,19.20
2023-08-05T01:12:52.770Z,19.20
2023-08-05T01:15:19.728Z,19.20
2023-08-05T01:17:46.638Z,19.20
2023-08-05T01:20:14.962Z,19.20
2023-08-05T01:22:43.474Z,19.20
2023-08-05T01:25:27.020Z,19.20
2023-08-05T01:27:53.932Z,19.20
2023-08-05T01:30:21.013Z,19.10
2023-08-05T01:32:47.927Z,19.20
2023-08-05T01:35:14.848Z,19.20
2023-08-05T01:37:41.770Z,19.10
2023-08-05T01:40:09.580Z,19.10
2023-08-05T01:42:37.860Z,19.10
2023-08-05T01:45:05.677Z,19.10
2023-08-05T01:47:32.571Z,19.10
2023-08-05T01:49:59.493Z,19.10
2023-08-05T01:52:26.385Z,19.10
2023-08-05T01:54:53.300Z,19.10
2023-08-05T01:57:20.194Z,19.10
2023-08-05T01:59:48.434Z,19.10
2023-08-05T02:02:15.357Z,19.10
2023-08-05T02:04:42.300Z,19.10
2023-08-05T02:07:09.193Z,19.10
2023-08-05T02:09:36.084Z,19.00
2023-08-05T02:12:03.056Z,19.10
2023-08-05T02:14:30.026Z,19.00
2023-08-05T02:16:58.353Z,19.00
2023-08-05T02:19:25.260Z,19.10
2023-08-05T02:21:52.132Z,19.00
2023-08-05T02:24:19.047Z,19.00
2023-08-05T02:26:45.965Z,19.00
2023-08-05T02:29:12.856Z,19.00
2023-08-05T02:31:39.734Z,19.00
2023-08-05T02:34:07.998Z,19.00
2023-08-05T02:36:34.875Z,19.00
2023-08-05T02:39:01.804Z,19.00
2023-08-05T02:41:28.738Z,19.00
2023-08-05T02:43:55.625Z,19.00
2023-08-05T02:46:22.518Z,19.00
2023-08-05T02:48:49.418Z,18.90
2023-08-05T02:51:17.715Z,18.90
2023-08-05T02:53:45.477Z,18.90
2023-08-05T02:56:12.400Z,18.90
2023-08-05T02:58:39.345Z,18.90
2023-08-05T03:01:07.059Z,18.90
2023-08-05T03:03:34.009Z,18.90
2023-08-05T03:06:00.939Z,18.90
2023-08-05T03:08:29.285Z,18.90
2023-08-05T03:10:59.300Z,18.90
2023-08-05T03:13:26.179Z,18.90
2023-08-05T03:15:53.794Z,18.90
2023-08-05T03:18:20.759Z,18.90
2023-08-05T03:20:48.377Z,18.90
2023-08-05T03:23:15.281Z,18.90
2023-08-05T03:25:43.560Z,18.90
2023-08-05T03:28:10.443Z,18.90
2023-08-05T03:30:37.358Z,18.90
2023-08-05T03:33:04.381Z,18.90
2023-08-05T03:35:31.343Z,18.90
2023-08-05T03:37:58.223Z,18.90
2023-08-05T03:40:25.128Z,18.90
2023-08-05T03:42:53.521Z,18.90
2023-08-05T03:45:20.403Z,18.90
2023-08-05T03:47:47.345Z,18.90
2023-08-05T03:50:14.256Z,18.90
2023-08-05T03:52:41.690Z,18.90
2023-08-05T03:55:08.944Z,18.90
2023-08-05T03:57:35.876Z,18.80
2023-08-05T04:00:04.612Z,18.80
2023-08-05T04:02:31.529Z,18.90
2023-08-05T04:04:58.445Z,18.90
2023-08-05T04:07:25.326Z,18.80
2023-08-05T04:09:52.537Z,18.80
2023-08-05T04:12:19.476Z,18.80
2023-08-05T04:14:46.451Z,18.90
2023-08-05T04:17:14.835Z,18.80
2023-08-05T04:19:41.939Z,18.80
2023-08-05T04:22:08.849Z,18.80
2023-08-05T04:24:35.776Z,18.90
2023-08-05T04:27:02.889Z,18.80
2023-08-05T04:29:29.848Z,18.80
2023-08-05T04:31:56.740Z,18.80
2023-08-05T04:34:25.044Z,18.80
2023-08-05T04:36:52.832Z,18.80
2023-08-05T04:39:20.197Z,18.80
2023-08-05T04:41:47.077Z,18.80
2023-08-05T04:44:13.969Z,18.80
2023-08-05T04:46:40.860Z,18.80
2023-08-05T04:49:07.755Z,18.80
2023-08-05T04:51:36.056Z,18.80
2023-08-05T04:54:03.148Z,18.80
2023-08-05T04:56:30.044Z,18.80
2023-08-05T04:58:57.002Z,18.80
2023-08-05T05:01:23.930Z,18.80
2023-08-05T05:03:50.906Z,18.70
2023-08-05T05:06:17.871Z,18.70
2023-08-05T05:08:46.135Z,18.70
2023-08-05T05:11:13.572Z,18.70
2023-08-05T05:13:40.504Z,18.70
2023-08-05T05:16:07.466Z,18.70
2023-08-05T05:18:34.481Z,18.70
2023-08-05T05:21:01.762Z,18.70
2023-08-05T05:23:28.647Z,18.70
2023-08-05T05:25:56.916Z,18.70
2023-08-05T05:28:23.819Z,18.70
2023-08-05T05:30:50.709Z,18.70
2023-08-05T05:33:17.667Z,18.70
2023-08-05T05:35:44.581Z,18.70
2023-08-05T05:38:11.483Z,18.70
2023-08-05T05:40:40.584Z,18.70
2023-08-05T05:43:08.891Z,18.70
2023-08-05T05:45:35.924Z,18.70
2023-08-05T05:48:02.959Z,18.70
2023-08-05T05:50:29.918Z,18.60
2023-08-05T05:52:56.823Z,18.60
2023-08-05T05:55:23.706Z,18.60
2023-08-05T05:57:50.623Z,18.60
2023-08-05T06:00:18.982Z,18.60
2023-08-05T06:02:45.920Z,18.60
2023-08-05T06:05:12.926Z,18.60
2023-08-05T06:07:39.834Z,18.60
2023-08-05T06:10:07.721Z,18.60
2023-08-05T06:12:34.607Z,18.60
2023-08-05T06:15:01.526Z,18.60
2023-08-05T06:17:29.799Z,18.60
2023-08-05T06:19:56.798Z,18.60
2023-08-05T06:22:23.685Z,18.60
2023-08-05T06:24:50.576Z,18.60
2023-08-05T06:27:17.460Z,18.50
2023-08-05T06:29:44.485Z,18.50
2023-08-05T06:32:11.380Z,18.50
2023-08-05T06:34:39.674Z,18.50
2023-08-05T06:37:06.989Z,18.50
2023-08-05T06:39:33.893Z,18.50
2023-08-05T06:42:00.825Z,18.50
2023-08-05T06:44:27.728Z,18.50
2023-08-05T06:46:54.618Z,18.50
2023-08-05T06:49:21.515Z,18.50
2023-08-05T06:51:49.966Z,18.50
2023-08-05T06:54:17.085Z,18.50
2023-08-05T06:56:44.001Z,18.50
2023-08-05T06:59:10.898Z,18.50
2023-08-05T07:01:37.935Z,18.50
2023-08-05T07:04:05.172Z,18.50
2023-08-05T07:06:32.105Z,18.50
2023-08-05T07:09:00.490Z,18.50
2023-08-05T07:11:27.382Z,18.50
2023-08-05T07:13:54.306Z,18.40
2023-08-05T07:16:21.244Z,18.40
2023-08-05T07:18:48.150Z,18.40
2023-08-05T07:21:15.092Z,18.40
2023-08-05T07:23:41.981Z,18.40
2023-08-05T07:26:10.238Z,18.40
2023-08-05T07:28:37.157Z,18.40
2023-08-05T07:31:04.799Z,18.40
2023-08-05T07:33:31.745Z,18.50
2023-08-05T07:35:58.666Z,18.40
2023-08-05T07:38:26.051Z,18.40
2023-08-05T07:40:52.971Z,18.40
2023-08-05T07:43:21.975Z,18.40
2023-08-05T07:45:48.905Z,18.40
2023-08-05T07:48:15.872Z,18.40
2023-08-05T07:50:42.816Z,18.40
2023-08-05T07:53:09.928Z,18.40
2023-08-05T07:55:36.831Z,18.40
2023-08-05T07:58:03.755Z,18.50
2023-08-05T08:00:32.087Z,18.50
2023-08-05T08:02:59.038Z,18.50
2023-08-05T08:05:26.191Z,18.50
2023-08-05T08:07:53.096Z,18.50
2023-08-05T08:10:19.985Z,18.50
2023-08-05T08:12:46.929Z,18.50
2023-08-05T08:15:13.833Z,18.60
2023-08-05T08:17:42.125Z,18.60
2023-08-05T08:20:09.823Z,18.60
2023-08-05T08:22:36.801Z,18.60
2023-08-05T08:25:03.942Z,18.60
2023-08-05T08:27:30.845Z,18.60
2023-08-05T08:29:57.812Z,18.60
2023-08-05T08:32:24.782Z,18.60
2023-08-05T08:34:53.297Z,18.60
2023-08-05T08:37:20.207Z,18.70
2023-08-05T08:39:47.130Z,18.70
2023-08-05T08:42:14.059Z,18.60
2023-08-05T08:44:40.936Z,18.70
2023-08-05T08:47:07.856Z,18.70
2023-08-05T08:49:34.780Z,18.70
2023-08-05T08:52:03.074Z,18.70
2023-08-05T08:54:30.014Z,18.70
2023-08-05T08:56:56.944Z,18.70
2023-08-05T08:59:23.938Z,18.60
2023-08-05T09:01:51.169Z,18.70
2023-08-05T09:04:18.241Z,18.70
2023-08-05T09:06:45.361Z,18.70
2023-08-05T09:09:13.644Z,18.70
2023-08-05T09:11:40.574Z,18.60
2023-08-05T09:14:07.478Z,18.60
2023-08-05T09:16:34.378Z,18.60
2023-08-05T09:19:01.262Z,18.70
2023-08-05T09:21:28.325Z,18.70
2023-08-05T09:23:55.259Z,18.70
2023-08-05T09:26:29.533Z,18.70
2023-08-05T09:28:56.461Z,18.70
2023-08-05T09:31:23.471Z,18.60
2023-08-05T09:33:50.430Z,18.70
2023-08-05T09:36:17.334Z,18.70
2023-08-05T09:38:44.631Z,18.70
2023-08-05T09:41:11.548Z,18.70
2023-08-05T09:43:39.843Z,18.80
2023-08-05T09:46:06.855Z,18.80
2023-08-05T09:48:37.898Z,18.80
2023-08-05T09:51:04.798Z,18.80
2023-08-05T09:53:31.802Z,18.70
2023-08-05T09:55:58.717Z,18.70
2023-08-05T09:58:25.661Z,18.70
2023-08-05T10:00:53.974Z,18.70
2023-08-05T10:03:20.870Z,18.70
2023-08-05T10:05:47.752Z,18.70
2023-08-05T10:08:14.650Z,18.70
2023-08-05T10:10:41.581Z,18.70
2023-08-05T10:13:09.669Z,18.70
2023-08-05T10:15:38.072Z,18.70
2023-08-05T10:18:09.293Z,18.70
2023-08-05T10:20:36.940Z,18.80
2023-08-05T10:23:04.444Z,18.80
2023-08-05T10:25:41.179Z,18.80
2023-08-05T10:28:08.231Z,18.80
2023-08-05T10:30:41.217Z,18.80
2023-08-05T10:33:09.688Z,18.80
2023-08-05T10:35:40.024Z,18.80
2023-08-05T10:38:11.900Z,18.80
2023-08-05T10:40:46.023Z,18.80
2023-08-05T10:43:27.606Z,18.80
2023-08-05T10:45:54.604Z,18.80
2023-08-05T10:48:27.709Z,18.80
2023-08-05T10:50:54.586Z,18.80
2023-08-05T10:53:21.744Z,18.80
2023-08-05T10:55:49.210Z,18.80
2023-08-05T10:58:16.310Z,18.80
2023-08-05T11:00:43.237Z,18.90
2023-08-05T11:03:41.764Z,18.90
2023-08-05T11:06:08.812Z,18.90
2023-08-05T11:08:36.580Z,18.90
2023-08-05T11:11:03.950Z,18.90
2023-08-05T11:13:34.906Z,18.90
2023-08-05T11:16:02.998Z,18.90
2023-08-05T11:18:30.008Z,18.90
2023-08-05T11:20:58.648Z,18.90
2023-08-05T11:23:25.626Z,18.90
2023-08-05T11:25:53.053Z,18.90
2023-08-05T11:28:20.309Z,18.90
2023-08-05T11:30:47.197Z,18.90
2023-08-05T11:33:14.111Z,19.00
2023-08-05T11:35:44.353Z,19.00
2023-08-05T11:38:12.655Z,19.00
2023-08-05T11:40:43.651Z,19.00
2023-08-05T11:43:11.197Z,19.00
2023-08-05T11:45:40.987Z,19.10
2023-08-05T11:48:08.313Z,19.00
2023-08-05T11:50:35.402Z,19.00
2023-08-05T11:53:07.820Z,19.00
2023-08-05T11:55:36.961Z,19.10
2023-08-05T11:58:03.898Z,19.10
2023-08-05T12:00:30.807Z,19.10
2023-08-05T12:02:57.826Z,19.10
2023-08-05T12:05:24.767Z,19.10
2023-08-05T12:07:51.730Z,19.10
2023-08-05T12:10:19.121Z,19.10
2023-08-05T12:12:47.881Z,19.10
2023-08-05T12:15:15.355Z,19.20
2023-08-05T12:17:46.320Z,19.20
2023-08-05T12:20:16.658Z,19.20
2023-08-05T12:22:43.542Z,19.20
2023-08-05T12:25:10.488Z,19.20
2023-08-05T12:27:37.379Z,19.20
2023-08-05T12:30:06.960Z,19.20
2023-08-05T12:32:33.940Z,19.20
2023-08-05T12:35:00.959Z,19.20
2023-08-05T12:37:27.877Z,19.20
2023-08-05T12:39:54.875Z,19.20
2023-08-05T12:42:21.800Z,19.20
2023-08-05T12:44:48.701Z,19.20
2023-08-05T12:47:18.239Z,19.20
2023-08-05T12:49:45.128Z,19.20
2023-08-05T12:52:12.080Z,19.20
2023-08-05T12:54:38.969Z,19.20
2023-08-05T12:57:06.022Z,19.30
2023-08-05T12:59:32.936Z,19.30
2023-08-05T13:01:59.847Z,19.30
2023-08-05T13:04:28.137Z,19.30
2023-08-05T13:06:55.284Z,19.30
2023-08-05T13:09:22.219Z,19.30
2023-08-05T13:11:49.269Z,19.30
2023-08-05T13:14:16.397Z,19.30
2023-08-05T13:16:43.310Z,19.30
2023-08-05T13:19:10.276Z,19.40
2023-08-05T13:21:38.568Z,19.40
2023-08-05T13:24:05.688Z,19.40
2023-08-05T13:26:32.626Z,19.40
2023-08-05T13:28:59.561Z,19.40
2023-08-05T13:31:26.538Z,19.50
2023-08-05T13:33:53.524Z,19.40
2023-08-05T13:36:20.528Z,19.50
2023-08-05T13:38:48.856Z,19.50
2023-08-05T13:41:15.748Z,19.50
2023-08-05T13:43:42.659Z,19.50
2023-08-05T13:46:09.711Z,19.50
2023-08-05T13:48:36.705Z,19.50
2023-08-05T13:51:03.845Z,19.50
2023-08-05T13:53:30.762Z,19.50
2023-08-05T13:55:59.197Z,19.50
2023-08-05T13:58:26.182Z,19.50
2023-08-05T14:00:53.920Z,19.50
2023-08-05T14:03:23.267Z,19.50
2023-08-05T14:05:52.158Z,19.50
2023-08-05T14:08:19.107Z,19.50
2023-08-05T14:10:48.550Z,19.50
2023-08-05T14:13:16.830Z,19.60
2023-08-05T14:15:43.733Z,19.60
2023-08-05T14:18:10.688Z,19.60
2023-08-05T14:20:37.678Z,19.60
2023-08-05T14:23:04.572Z,19.70
2023-08-05T14:25:31.453Z,19.70
2023-08-05T14:27:58.368Z,19.70
2023-08-05T14:30:30.814Z,19.70
2023-08-05T14:32:58.512Z,19.70
2023-08-05T14:35:25.482Z,19.70
2023-08-05T14:37:52.419Z,19.70
2023-08-05T14:40:19.336Z,19.80
2023-08-05T14:42:46.236Z,19.80
2023-08-05T14:45:13.152Z,19.80
2023-08-05T14:47:41.431Z,19.80
2023-08-05T14:50:09.910Z,19.80
2023-08-05T14:52:36.814Z,19.80
2023-08-05T14:55:04.034Z,19.80
2023-08-05T14:57:30.946Z,19.90
2023-08-05T14:59:57.856Z,19.90
2023-08-05T15:02:25.045Z,19.90
2023-08-05T15:04:53.528Z,19.90
2023-08-05T15:07:20.402Z,20.00
2023-08-05T15:09:47.299Z,20.00
2023-08-05T15:12:14.217Z,19.90
2023-08-05T15:14:41.123Z,19.90
2023-08-05T15:17:08.029Z,20.00
2023-08-05T15:19:34.926Z,20.00
2023-08-05T15:22:03.286Z,20.00
2023-08-05T15:24:30.201Z,20.00
2023-08-05T15:26:57.115Z,20.00
2023-08-05T15:29:24.016Z,20.00
2023-08-05T15:31:51.056Z,20.00
2023-08-05T15:34:18.067Z,20.00
2023-08-05T15:36:45.312Z,20.00
2023-08-05T15:39:13.592Z,20.00
2023-08-05T15:41:40.497Z,20.00
2023-08-05T15:44:07.392Z,20.00
2023-08-05T15:46:34.277Z,20.00
2023-08-05T15:49:01.164Z,20.10
2023-08-05T15:51:28.076Z,20.10
2023-08-05T15:53:54.974Z,20.10
2023-08-05T15:56:23.223Z,20.10
2023-08-05T15:58:50.124Z,20.20
2023-08-05T16:01:17.054Z,20.20
2023-08-05T16:03:44.002Z,20.20
2023-08-05T16:06:11.601Z,20.20
2023-08-05T16:08:38.735Z,20.20
2023-08-05T16:11:06.197Z,20.10
2023-08-05T16:13:34.603Z,20.10
2023-08-05T16:16:08.704Z,20.10
2023-08-05T16:18:35.859Z,20.10
2023-08-05T16:21:15.819Z,20.10
2023-08-05T16:23:42.780Z,20.20
2023-08-05T16:26:10.786Z,20.20
2023-08-05T16:28:39.028Z,20.20
2023-08-05T16:31:06.081Z,20.20
2023-08-05T16:33:33.225Z,20.20
2023-08-05T16:36:00.144Z,20.30
2023-08-05T16:38:27.059Z,20.30
2023-08-05T16:40:53.942Z,20.30
2023-08-05T16:43:20.824Z,20.30
2023-08-05T16:45:49.068Z,20.30
2023-08-05T16:48:15.997Z,20.30
2023-08-05T16:50:42.957Z,20.30
2023-08-05T16:53:10.073Z,20.30
2023-08-05T16:55:36.974Z,20.30
2023-08-05T16:58:03.952Z,20.20
2023-08-05T17:00:30.889Z,20.20
2023-08-05T17:02:59.197Z,20.30
2023-08-05T17:05:26.112Z,20.30
2023-08-05T17:07:52.988Z,20.30
2023-08-05T17:10:20.146Z,20.30
2023-08-05T17:12:47.029Z,20.30
2023-08-05T17:15:13.915Z,20.30
2023-08-05T17:17:40.850Z,20.40
2023-08-05T17:20:10.258Z,20.40
2023-08-05T17:22:37.138Z,20.40
2023-08-05T17:25:04.653Z,20.40
2023-08-05T17:27:31.558Z,20.50
2023-08-05T17:29:58.436Z,20.50
2023-08-05T17:32:25.359Z,20.50
2023-08-05T17:34:52.284Z,20.50
2023-08-05T17:37:20.571Z,20.50
2023-08-05T17:39:47.464Z,20.60
2023-08-05T17:42:14.391Z,20.50
2023-08-05T17:44:41.271Z,20.50
2023-08-05T17:47:08.161Z,20.50
2023-08-05T17:49:35.083Z,20.50
2023-08-05T17:52:02.008Z,20.50
2023-08-05T17:54:30.270Z,20.50
2023-08-05T17:56:57.228Z,20.50
2023-08-05T17:59:24.098Z,20.50
2023-08-05T18:01:51.502Z,20.40
2023-08-05T18:04:18.911Z,20.50
2023-08-05T18:06:45.868Z,20.40
2023-08-05T18:09:12.812Z,20.40
2023-08-05T18:11:41.089Z,20.40
2023-08-05T18:14:08.006Z,20.40
2023-08-05T18:16:34.912Z,20.40
2023-08-05T18:19:01.810Z,20.30
2023-08-05T18:21:28.747Z,20.30
2023-08-05T18:23:55.699Z,20.30
2023-08-05T18:26:22.669Z,20.30
2023-08-05T18:28:51.112Z,20.30
2023-08-05T18:31:18.388Z,20.30
2023-08-05T18:33:45.487Z,20.20
2023-08-05T18:36:12.408Z,20.20
2023-08-05T18:38:39.345Z,20.20
2023-08-05T18:41:06.426Z,20.20
2023-08-05T18:43:33.408Z,20.20
2023-08-05T18:46:01.783Z,20.20
2023-08-05T18:48:28.762Z,20.20
2023-08-05T18:50:55.733Z,20.10
2023-08-05T18:53:22.728Z,20.20
2023-08-05T18:55:49.993Z,20.20
2023-08-05T18:58:16.992Z,20.20
2023-08-05T19:00:43.944Z,20.20
2023-08-05T19:03:12.219Z,20.10
2023-08-05T19:05:39.214Z,20.20
2023-08-05T19:08:06.176Z,20.10
2023-08-05T19:10:38.804Z,20.10
2023-08-05T19:13:05.751Z,20.10
2023-08-05T19:15:32.683Z,20.10
2023-08-05T19:17:59.703Z,20.10
2023-08-05T19:20:27.973Z,20.10
2023-08-05T19:22:54.902Z,20.10
2023-08-05T19:25:21.834Z,20.10
2023-08-05T19:27:54.453Z,20.10
2023-08-05T19:30:22.169Z,20.10
2023-08-05T19:32:49.267Z,20.00
2023-08-05T19:35:16.620Z,20.00
2023-08-05T19:37:44.902Z,20.00
2023-08-05T19:40:12.298Z,20.00
2023-08-05T19:42:39.194Z,20.00
2023-08-05T19:45:06.976Z,20.00
2023-08-05T19:47:33.901Z,20.00
2023-08-05T19:50:00.843Z,20.00
2023-08-05T19:52:27.801Z,20.00
2023-08-05T19:54:56.071Z,20.00
2023-08-05T19:57:23.026Z,20.00
2023-08-05T19:59:49.942Z,20.00
2023-08-05T20:02:16.879Z,20.00
2023-08-05T20:04:43.786Z,20.00
2023-08-05T20:07:10.680Z,20.00
2023-08-05T20:09:37.559Z,19.90
2023-08-05T20:12:06.834Z,20.00
2023-08-05T20:14:33.726Z,19.90
2023-08-05T20:17:00.669Z,19.90
2023-08-05T20:19:27.556Z,19.90
2023-08-05T20:21:54.754Z,19.90
2023-08-05T20:24:21.898Z,19.90
2023-08-05T20:26:48.802Z,19.90
2023-08-05T20:29:17.091Z,19.90
2023-08-05T20:31:43.959Z,19.90
2023-08-05T20:34:10.839Z,19.90
2023-08-05T20:36:37.758Z,19.90
2023-08-05T20:39:04.668Z,19.90
2023-08-05T20:41:31.561Z,19.90
2023-08-05T20:43:58.470Z,19.90
2023-08-05T20:46:26.841Z,19.90
2023-08-05T20:48:53.763Z,19.90
2023-08-05T20:51:20.681Z,19.90
2023-08-05T20:53:47.597Z,19.80
2023-08-05T20:56:14.524Z,19.80
2023-08-05T20:58:41.435Z,19.80
2023-08-05T21:01:08.343Z,19.80
2023-08-05T21:03:37.253Z,19.80
2023-08-05T21:06:04.225Z,19.80
2023-08-05T21:08:31.524Z,19.80
2023-08-05T21:11:05.742Z,19.80
2023-08-05T21:13:32.643Z,19.80
2023-08-05T21:15:59.572Z,19.80
2023-08-05T21:18:26.506Z,19.80
2023-08-05T21:20:55.593Z,19.80
2023-08-05T21:23:22.508Z,19.80
2023-08-05T21:25:49.493Z,19.70
2023-08-05T21:28:16.378Z,19.80
2023-08-05T21:30:43.365Z,19.80
2023-08-05T21:33:10.554Z,19.80
2023-08-05T21:35:37.468Z,19.70
2023-08-05T21:38:05.750Z,19.70
2023-08-05T21:40:32.630Z,19.70
2023-08-05T21:42:59.517Z,19.70
2023-08-05T21:45:26.417Z,19.70
2023-08-05T21:47:53.323Z,19.70
2023-08-05T21:50:20.292Z,19.70
2023-08-05T21:52:47.213Z,19.70
2023-08-05T21:55:15.638Z,19.70
2023-08-05T21:57:42.534Z,19.70
2023-08-05T22:00:10.592Z,19.70
2023-08-05T22:02:37.590Z,19.70
2023-08-05T22:05:04.839Z,19.70
2023-08-05T22:07:31.734Z,19.70
2023-08-05T22:09:58.638Z,19.70
2023-08-05T22:12:26.942Z,19.60
2023-08-05T22:14:54.425Z,19.70
2023-08-05T22:17:22.444Z,19.60
2023-08-05T22:19:49.391Z,19.60
2023-08-05T22:22:16.283Z,19.60
2023-08-05T22:24:43.182Z,19.60
2023-08-05T22:27:10.081Z,19.60
2023-08-05T22:29:38.375Z,19.60
2023-08-05T22:32:06.189Z,19.60
2023-08-05T22:34:33.105Z,19.60
2023-08-05T22:37:00.244Z,19.60
2023-08-05T22:39:27.134Z,19.50
2023-08-05T22:41:54.290Z,19.50
2023-08-05T22:44:21.441Z,19.50
2023-08-05T22:46:49.843Z,19.50
2023-08-05T22:49:16.803Z,19.50
2023-08-05T22:51:43.712Z,19.50
2023-08-05T22:54:10.609Z,19.50
2023-08-05T22:56:37.490Z,19.50
2023-08-05T22:59:04.364Z,19.50
2023-08-05T23:01:31.729Z,19.50
2023-08-05T23:04:00.006Z,19.50
2023-08-05T23:06:26.894Z,19.50
2023-08-05T23:08:53.886Z,19.50
2023-08-05T23:11:20.818Z,19.40
2023-08-05T23:13:47.735Z,19.40
2023-08-05T23:16:15.273Z,19.40
2023-08-05T23:18:42.245Z,19.40
2023-08-05T23:21:10.536Z,19.40
2023-08-05T23:23:37.438Z,19.40
2023-08-05T23:26:04.614Z,19.40
2023-08-05T23:28:31.886Z,19.40
2023-08-05T23:30:58.825Z,19.40
2023-08-05T23:33:25.803Z,19.40
2023-08-05T23:35:55.218Z,19.40
2023-08-05T23:38:23.564Z,19.30
2023-08-05T23:40:50.619Z,19.40
2023-08-05T23:43:17.806Z,19.30
2023-08-05T23:45:44.717Z,19.30
2023-08-05T23:48:11.626Z,19.30
2023-08-05T23:50:38.676Z,19.30
2023-08-05T23:53:05.619Z,19.30
2023-08-05T23:55:33.876Z,19.30
2023-08-05T23:58:00.815Z,19.30
